createdAt,value
2019-04-29T00:01:15.475Z,5.86
2019-04-29T00:07:20.153Z,5.95
2019-04-29T00:13:25.736Z,5.95
2019-04-29T00:19:30.287Z,5.95
2019-04-29T00:25:35.119Z,5.89
2019-04-29T00:31:39.690Z,5.66
2019-04-29T00:38:02.142Z,5.48
2019-04-29T00:44:08.695Z,5.57
2019-04-29T00:50:13.384Z,5.39
2019-04-29T00:56:17.939Z,5.57
2019-04-29T01:02:22.556Z,5.73
2019-04-29T01:08:27.538Z,5.47
2019-04-29T01:14:32.086Z,5.40
2019-04-29T01:20:36.631Z,5.38
2019-04-29T01:26:56.230Z,5.43
2019-04-29T01:33:00.898Z,5.43
2019-04-29T01:39:09.311Z,5.09
2019-04-29T01:45:14.077Z,4.99
2019-04-29T01:51:18.646Z,4.97
2019-04-29T01:57:23.198Z,5.12
2019-04-29T02:03:27.794Z,5.12
2019-04-29T02:09:36.394Z,5.33
2019-04-29T02:15:40.940Z,5.33
2019-04-29T02:21:47.118Z,5.28
2019-04-29T02:27:51.667Z,5.12
2019-04-29T02:33:56.211Z,5.21
2019-04-29T02:40:02.398Z,5.14
2019-04-29T02:46:07.066Z,5.17
2019-04-29T02:52:11.807Z,5.07
2019-04-29T02:58:20.747Z,5.00
2019-04-29T03:04:29.901Z,4.91
2019-04-29T03:10:34.443Z,5.06
2019-04-29T03:16:39.812Z,4.81
2019-04-29T03:22:46.369Z,4.58
2019-04-29T03:28:50.910Z,4.37
2019-04-29T03:34:55.465Z,4.24
2019-04-29T03:40:59.999Z,4.15
2019-04-29T03:47:04.793Z,4.33
2019-04-29T03:53:09.398Z,4.30
2019-04-29T03:59:13.948Z,4.25
2019-04-29T04:05:20.701Z,4.17
2019-04-29T04:11:25.241Z,4.21
2019-04-29T04:17:31.449Z,4.30
2019-04-29T04:23:36.023Z,4.27
2019-04-29T04:29:40.554Z,4.43
2019-04-29T04:35:45.105Z,4.54
2019-04-29T04:41:49.665Z,4.83
2019-04-29T04:47:54.373Z,4.91
2019-04-29T04:53:58.910Z,5.38
2019-04-29T05:00:06.537Z,5.27
2019-04-29T05:06:11.176Z,5.29
2019-04-29T05:12:15.715Z,5.46
2019-04-29T05:18:20.334Z,5.55
2019-04-29T05:24:24.953Z,5.71
2019-04-29T05:30:29.893Z,5.90
2019-04-29T05:36:38.178Z,5.93
2019-04-29T05:42:43.471Z,6.00
2019-04-29T05:48:48.192Z,6.27
2019-04-29T05:54:52.848Z,6.65
2019-04-29T06:01:04.765Z,6.84
2019-04-29T06:07:09.309Z,6.97
2019-04-29T06:13:13.866Z,7.36
2019-04-29T06:19:18.425Z,7.54
2019-04-29T06:25:22.959Z,8.24
2019-04-29T06:31:27.501Z,8.19
2019-04-29T06:37:32.057Z,8.27
2019-04-29T06:43:36.594Z,8.86
2019-04-29T06:49:41.218Z,9.34
2019-04-29T06:55:45.772Z,10.14
2019-04-29T07:01:50.323Z,10.98
2019-04-29T07:07:54.911Z,11.23
2019-04-29T07:13:59.487Z,10.92
2019-04-29T07:20:05.386Z,11.05
2019-04-29T07:26:09.951Z,11.04
2019-04-29T07:32:14.509Z,11.46
2019-04-29T07:38:19.117Z,11.38
2019-04-29T07:44:27.443Z,11.86
2019-04-29T07:50:31.857Z,12.21
2019-04-29T07:56:37.811Z,12.51
2019-04-29T08:02:42.765Z,12.39
2019-04-29T08:08:54.671Z,12.37
2019-04-29T08:14:58.626Z,12.25
2019-04-29T08:21:01.404Z,12.07
2019-04-29T08:27:06.095Z,12.15
2019-04-29T08:33:12.089Z,11.83
2019-04-29T08:39:16.957Z,12.01
2019-04-29T08:45:22.226Z,11.91
2019-04-29T08:51:26.863Z,11.93
2019-04-29T08:57:31.798Z,11.85
2019-04-29T09:03:40.350Z,11.81
2019-04-29T09:09:43.986Z,11.97
2019-04-29T09:15:48.546Z,11.80
2019-04-29T09:21:57.374Z,11.43
2019-04-29T09:28:03.657Z,11.29
2019-04-29T09:34:08.233Z,11.06
2019-04-29T09:40:26.769Z,11.02
2019-04-29T09:46:34.591Z,10.73
2019-04-29T09:52:39.320Z,10.79
2019-04-29T09:58:43.963Z,10.96
2019-04-29T10:05:08.664Z,10.82
2019-04-29T10:11:13.795Z,10.90
2019-04-29T10:17:18.149Z,10.62
2019-04-29T10:23:22.941Z,10.44
2019-04-29T10:29:29.147Z,10.20
2019-04-29T10:35:33.868Z,10.01
2019-04-29T10:41:41.609Z,10.05
2019-04-29T10:47:54.211Z,9.97
2019-04-29T10:53:58.897Z,10.14
2019-04-29T11:00:23.483Z,10.06
2019-04-29T11:06:31.439Z,10.27
2019-04-29T11:12:34.926Z,10.46
2019-04-29T11:18:39.966Z,10.72
2019-04-29T11:24:50.517Z,10.70
2019-04-29T11:30:55.411Z,10.79
2019-04-29T11:37:00.531Z,10.68
2019-04-29T11:43:10.808Z,10.62
2019-04-29T11:49:15.582Z,10.63
2019-04-29T11:55:20.298Z,10.37
2019-04-29T12:01:37.979Z,10.22
2019-04-29T12:07:34.081Z,10.04
2019-04-29T12:13:40.474Z,10.24
2019-04-29T12:19:49.445Z,9.92
2019-04-29T12:25:54.013Z,10.21
2019-04-29T12:32:00.284Z,10.30
2019-04-29T12:38:22.725Z,10.18
2019-04-29T12:44:39.653Z,10.16
2019-04-29T12:50:41.589Z,10.32
2019-04-29T12:56:47.638Z,10.24
2019-04-29T13:03:01.786Z,10.28
2019-04-29T13:09:17.965Z,10.28
2019-04-29T13:15:22.378Z,10.39
2019-04-29T13:21:27.134Z,10.45
2019-04-29T13:27:31.769Z,10.56
2019-04-29T13:33:36.350Z,10.53
2019-04-29T13:39:40.972Z,10.30
2019-04-29T13:45:52.939Z,10.57
2019-04-29T13:51:59.128Z,10.20
2019-04-29T13:58:04.022Z,10.19
2019-04-29T14:04:24.380Z,10.22
2019-04-29T14:10:22.900Z,10.21
2019-04-29T14:16:27.521Z,10.32
2019-04-29T14:22:32.329Z,10.20
2019-04-29T14:28:37.046Z,10.30
2019-04-29T14:34:43.336Z,10.32
2019-04-29T14:40:47.892Z,10.25
2019-04-29T14:47:00.000Z,10.05
2019-04-29T14:53:04.621Z,10.07
2019-04-29T14:59:09.173Z,10.10
2019-04-29T15:05:14.078Z,10.10
2019-04-29T15:11:31.341Z,10.12
2019-04-29T15:17:27.062Z,9.99
2019-04-29T15:23:32.966Z,9.79
2019-04-29T15:29:37.670Z,9.80
2019-04-29T15:35:42.363Z,9.66
2019-04-29T15:41:47.087Z,9.84
2019-04-29T15:47:51.731Z,9.77
2019-04-29T15:53:56.274Z,9.77
2019-04-29T16:00:02.051Z,9.80
2019-04-29T16:06:20.789Z,9.88
2019-04-29T16:12:25.938Z,9.73
2019-04-29T16:18:30.487Z,9.84
2019-04-29T16:24:38.227Z,9.76
2019-04-29T16:30:41.490Z,9.71
2019-04-29T16:36:49.822Z,9.89
2019-04-29T16:43:03.179Z,9.80
2019-04-29T16:49:07.962Z,10.09
2019-04-29T16:55:12.682Z,10.07
2019-04-29T17:01:17.308Z,10.16
2019-04-29T17:07:21.950Z,10.07
2019-04-29T17:13:26.585Z,10.24
2019-04-29T17:19:31.302Z,10.13
2019-04-29T17:25:35.886Z,10.33
2019-04-29T17:31:40.954Z,10.28
2019-04-29T17:37:46.277Z,10.39
2019-04-29T17:43:53.330Z,10.31
2019-04-29T17:50:01.982Z,10.21
2019-04-29T17:56:25.341Z,10.38
2019-04-29T18:02:48.157Z,10.53
2019-04-29T18:08:54.993Z,10.45
2019-04-29T18:14:59.576Z,10.57
2019-04-29T18:21:12.912Z,10.50
2019-04-29T18:27:19.125Z,10.49
2019-04-29T18:33:29.874Z,10.56
2019-04-29T18:39:31.616Z,10.55
2019-04-29T18:45:37.861Z,10.69
2019-04-29T18:51:42.417Z,10.77
2019-04-29T18:57:47.049Z,10.75
2019-04-29T19:03:56.189Z,10.64
2019-04-29T19:10:00.810Z,10.64
2019-04-29T19:16:10.366Z,10.63
2019-04-29T19:22:11.684Z,10.48
2019-04-29T19:28:25.212Z,10.68
2019-04-29T19:34:22.643Z,10.42
2019-04-29T19:40:30.653Z,10.32
2019-04-29T19:46:38.269Z,10.21
2019-04-29T19:52:39.770Z,10.10
2019-04-29T19:58:44.686Z,9.93
2019-04-29T20:04:59.570Z,9.93
2019-04-29T20:11:13.753Z,9.80
2019-04-29T20:17:30.541Z,9.82
2019-04-29T20:23:38.462Z,9.88
2019-04-29T20:29:40.285Z,9.94
2019-04-29T20:35:49.077Z,10.13
2019-04-29T20:41:51.386Z,10.17
2019-04-29T20:47:56.424Z,10.25
2019-04-29T20:54:09.259Z,10.29
2019-04-29T21:00:19.953Z,10.24
2019-04-29T21:06:22.236Z,10.15
2019-04-29T21:12:41.419Z,10.23
2019-04-29T21:18:52.963Z,10.10
2019-04-29T21:24:53.952Z,9.98
2019-04-29T21:30:58.852Z,9.98
2019-04-29T21:37:10.058Z,9.99
2019-04-29T21:43:21.654Z,9.96
2019-04-29T21:49:26.273Z,9.99
2019-04-29T21:55:30.827Z,10.07
2019-04-29T22:01:37.446Z,9.99
2019-04-29T22:07:45.971Z,10.04
2019-04-29T22:13:48.009Z,9.76
2019-04-29T22:19:52.557Z,9.69
2019-04-29T22:25:57.182Z,9.84
2019-04-29T22:32:01.796Z,9.79
2019-04-29T22:38:07.874Z,9.89
2019-04-29T22:44:21.285Z,10.08
2019-04-29T22:50:20.949Z,10.03
2019-04-29T22:56:27.631Z,9.96
2019-04-29T23:02:31.839Z,9.96
2019-04-29T23:08:38.099Z,9.73
2019-04-29T23:14:44.407Z,9.48
2019-04-29T23:21:08.652Z,9.52
2019-04-29T23:27:16.337Z,9.22
2019-04-29T23:33:22.995Z,9.05
2019-04-29T23:39:26.031Z,8.98
2019-04-29T23:45:30.570Z,9.01
2019-04-29T23:51:37.753Z,8.93
2019-04-29T23:58:02.925Z,8.59
